sensor_id;sensor_type;location;lat;lon;timestamp;temperature;humidity
67586;SHT31;55785;47.946;20.540;2023-05-18T00:00:42;13.98;71.22
67586;SHT31;55785;47.946;20.540;2023-05-18T00:03:07;13.97;71.13
67586;SHT31;55785;47.946;20.540;2023-05-18T00:05:33;13.99;71.63
67586;SHT31;55785;47.946;20.540;2023-05-18T00:08:02;13.98;71.47
67586;SHT31;55785;47.946;20.540;2023-05-18T00:10:28;13.97;71.25
67586;SHT31;55785;47.946;20.540;2023-05-18T00:12:53;13.95;71.38
67586;SHT31;55785;47.946;20.540;2023-05-18T00:15:19;13.85;71.36
67586;SHT31;55785;47.946;20.540;2023-05-18T00:17:44;13.88;71.55
67586;SHT31;55785;47.946;20.540;2023-05-18T00:20:10;13.88;71.35
67586;SHT31;55785;47.946;20.540;2023-05-18T00:22:35;13.83;71.04
67586;SHT31;55785;47.946;20.540;2023-05-18T00:25:00;13.88;71.75
67586;SHT31;55785;47.946;20.540;2023-05-18T00:27:26;13.78;71.79
67586;SHT31;55785;47.946;20.540;2023-05-18T00:29:51;13.78;71.15
67586;SHT31;55785;47.946;20.540;2023-05-18T00:32:17;13.79;71.51
67586;SHT31;55785;47.946;20.540;2023-05-18T00:34:42;13.71;71.91
67586;SHT31;55785;47.946;20.540;2023-05-18T00:37:07;13.72;72.34
67586;SHT31;55785;47.946;20.540;2023-05-18T00:39:33;13.68;72.28
67586;SHT31;55785;47.946;20.540;2023-05-18T00:41:58;13.65;72.86
67586;SHT31;55785;47.946;20.540;2023-05-18T00:44:23;13.62;72.60
67586;SHT31;55785;47.946;20.540;2023-05-18T00:46:49;13.50;72.51
67586;SHT31;55785;47.946;20.540;2023-05-18T00:49:15;13.50;72.81
67586;SHT31;55785;47.946;20.540;2023-05-18T00:51:41;13.53;72.95
67586;SHT31;55785;47.946;20.540;2023-05-18T00:54:08;13.51;72.96
67586;SHT31;55785;47.946;20.540;2023-05-18T00:56:33;13.48;73.24
67586;SHT31;55785;47.946;20.540;2023-05-18T00:59:00;13.41;73.39
67586;SHT31;55785;47.946;20.540;2023-05-18T01:01:28;13.40;73.80
67586;SHT31;55785;47.946;20.540;2023-05-18T01:03:57;13.39;73.52
67586;SHT31;55785;47.946;20.540;2023-05-18T01:06:22;13.41;73.66
67586;SHT31;55785;47.946;20.540;2023-05-18T01:08:48;13.41;73.81
67586;SHT31;55785;47.946;20.540;2023-05-18T01:11:36;13.43;73.51
67586;SHT31;55785;47.946;20.540;2023-05-18T01:14:08;13.40;74.29
67586;SHT31;55785;47.946;20.540;2023-05-18T01:16:44;13.40;73.51
67586;SHT31;55785;47.946;20.540;2023-05-18T01:24:22;13.41;73.73
67586;SHT31;55785;47.946;20.540;2023-05-18T01:26:48;13.39;74.65
67586;SHT31;55785;47.946;20.540;2023-05-18T01:29:14;13.37;74.56
67586;SHT31;55785;47.946;20.540;2023-05-18T01:31:41;13.41;74.62
67586;SHT31;55785;47.946;20.540;2023-05-18T01:34:07;13.39;74.71
67586;SHT31;55785;47.946;20.540;2023-05-18T01:36:32;13.34;74.91
67586;SHT31;55785;47.946;20.540;2023-05-18T01:38:59;13.34;74.97
67586;SHT31;55785;47.946;20.540;2023-05-18T01:41:26;13.34;75.11
67586;SHT31;55785;47.946;20.540;2023-05-18T01:49:26;13.24;76.22
67586;SHT31;55785;47.946;20.540;2023-05-18T01:51:53;13.24;75.88
67586;SHT31;55785;47.946;20.540;2023-05-18T01:54:21;13.34;75.92
67586;SHT31;55785;47.946;20.540;2023-05-18T01:56:47;13.33;75.36
67586;SHT31;55785;47.946;20.540;2023-05-18T01:59:15;13.33;75.95
67586;SHT31;55785;47.946;20.540;2023-05-18T02:01:41;13.33;75.90
67586;SHT31;55785;47.946;20.540;2023-05-18T02:04:07;13.30;76.45
67586;SHT31;55785;47.946;20.540;2023-05-18T02:06:33;13.20;76.41
67586;SHT31;55785;47.946;20.540;2023-05-18T02:08:58;13.22;76.91
67586;SHT31;55785;47.946;20.540;2023-05-18T02:11:24;13.14;77.19
67586;SHT31;55785;47.946;20.540;2023-05-18T02:13:49;13.14;76.81
67586;SHT31;55785;47.946;20.540;2023-05-18T02:16:14;13.09;76.69
67586;SHT31;55785;47.946;20.540;2023-05-18T02:18:40;13.12;77.26
67586;SHT31;55785;47.946;20.540;2023-05-18T02:21:05;13.09;77.53
67586;SHT31;55785;47.946;20.540;2023-05-18T02:23:30;13.10;77.43
67586;SHT31;55785;47.946;20.540;2023-05-18T02:25:56;13.06;77.46
67586;SHT31;55785;47.946;20.540;2023-05-18T02:28:22;13.03;77.22
67586;SHT31;55785;47.946;20.540;2023-05-18T02:30:47;13.09;77.66
67586;SHT31;55785;47.946;20.540;2023-05-18T02:33:13;13.03;77.28
67586;SHT31;55785;47.946;20.540;2023-05-18T02:35:38;13.02;78.04
67586;SHT31;55785;47.946;20.540;2023-05-18T02:38:03;12.93;78.23
67586;SHT31;55785;47.946;20.540;2023-05-18T02:40:29;12.91;78.26
67586;SHT31;55785;47.946;20.540;2023-05-18T02:42:54;12.86;78.64
67586;SHT31;55785;47.946;20.540;2023-05-18T02:45:19;12.86;79.62
67586;SHT31;55785;47.946;20.540;2023-05-18T02:47:45;12.76;79.51
67586;SHT31;55785;47.946;20.540;2023-05-18T02:50:10;12.72;80.03
67586;SHT31;55785;47.946;20.540;2023-05-18T02:52:36;12.66;79.79
67586;SHT31;55785;47.946;20.540;2023-05-18T02:55:01;12.64;81.12
67586;SHT31;55785;47.946;20.540;2023-05-18T02:57:27;12.58;80.79
67586;SHT31;55785;47.946;20.540;2023-05-18T02:59:52;12.56;81.07
67586;SHT31;55785;47.946;20.540;2023-05-18T03:02:17;12.54;81.59
67586;SHT31;55785;47.946;20.540;2023-05-18T03:04:43;12.45;81.79
67586;SHT31;55785;47.946;20.540;2023-05-18T03:07:08;12.41;81.98
67586;SHT31;55785;47.946;20.540;2023-05-18T03:09:33;12.38;82.00
67586;SHT31;55785;47.946;20.540;2023-05-18T03:11:59;12.34;82.01
67586;SHT31;55785;47.946;20.540;2023-05-18T03:14:24;12.37;82.42
67586;SHT31;55785;47.946;20.540;2023-05-18T03:16:49;12.27;82.33
67586;SHT31;55785;47.946;20.540;2023-05-18T03:19:15;12.31;81.99
67586;SHT31;55785;47.946;20.540;2023-05-18T03:21:40;12.28;82.43
67586;SHT31;55785;47.946;20.540;2023-05-18T03:24:05;12.27;82.52
67586;SHT31;55785;47.946;20.540;2023-05-18T03:26:31;12.30;81.92
67586;SHT31;55785;47.946;20.540;2023-05-18T03:28:57;12.27;82.09
67586;SHT31;55785;47.946;20.540;2023-05-18T03:31:23;12.21;81.68
67586;SHT31;55785;47.946;20.540;2023-05-18T03:33:49;12.21;81.99
67586;SHT31;55785;47.946;20.540;2023-05-18T03:36:14;12.24;82.38
67586;SHT31;55785;47.946;20.540;2023-05-18T03:38:39;12.25;82.34
67586;SHT31;55785;47.946;20.540;2023-05-18T03:41:05;12.21;82.05
67586;SHT31;55785;47.946;20.540;2023-05-18T03:43:30;12.24;82.39
67586;SHT31;55785;47.946;20.540;2023-05-18T03:45:55;12.24;83.21
67586;SHT31;55785;47.946;20.540;2023-05-18T03:48:22;12.17;82.84
67586;SHT31;55785;47.946;20.540;2023-05-18T03:50:47;12.16;82.67
67586;SHT31;55785;47.946;20.540;2023-05-18T03:53:13;12.14;82.59
67586;SHT31;55785;47.946;20.540;2023-05-18T03:55:38;12.17;82.97
67586;SHT31;55785;47.946;20.540;2023-05-18T03:58:03;12.21;83.03
67586;SHT31;55785;47.946;20.540;2023-05-18T04:00:29;12.20;83.23
67586;SHT31;55785;47.946;20.540;2023-05-18T04:02:54;12.17;82.94
67586;SHT31;55785;47.946;20.540;2023-05-18T04:05:19;12.18;83.60
67586;SHT31;55785;47.946;20.540;2023-05-18T04:07:45;12.10;83.18
67586;SHT31;55785;47.946;20.540;2023-05-18T04:10:13;12.08;83.24
67586;SHT31;55785;47.946;20.540;2023-05-18T04:12:39;12.06;83.88
67586;SHT31;55785;47.946;20.540;2023-05-18T04:15:05;12.08;83.95
67586;SHT31;55785;47.946;20.540;2023-05-18T04:17:30;12.01;83.71
67586;SHT31;55785;47.946;20.540;2023-05-18T04:19:56;12.06;84.15
67586;SHT31;55785;47.946;20.540;2023-05-18T04:22:21;12.01;84.40
67586;SHT31;55785;47.946;20.540;2023-05-18T04:24:47;12.04;84.69
67586;SHT31;55785;47.946;20.540;2023-05-18T04:27:13;12.00;84.26
67586;SHT31;55785;47.946;20.540;2023-05-18T04:29:38;12.03;84.01
67586;SHT31;55785;47.946;20.540;2023-05-18T04:32:06;12.04;84.51
67586;SHT31;55785;47.946;20.540;2023-05-18T04:34:33;12.04;84.78
67586;SHT31;55785;47.946;20.540;2023-05-18T04:36:58;12.06;84.34
67586;SHT31;55785;47.946;20.540;2023-05-18T04:39:24;12.01;84.69
67586;SHT31;55785;47.946;20.540;2023-05-18T04:41:50;12.01;85.19
67586;SHT31;55785;47.946;20.540;2023-05-18T04:44:16;12.01;84.16
67586;SHT31;55785;47.946;20.540;2023-05-18T04:46:41;12.01;84.63
67586;SHT31;55785;47.946;20.540;2023-05-18T04:49:06;12.06;84.47
67586;SHT31;55785;47.946;20.540;2023-05-18T04:51:32;12.10;84.77
67586;SHT31;55785;47.946;20.540;2023-05-18T04:53:57;12.04;84.73
67586;SHT31;55785;47.946;20.540;2023-05-18T04:56:22;12.07;84.90
67586;SHT31;55785;47.946;20.540;2023-05-18T04:58:48;12.06;84.21
67586;SHT31;55785;47.946;20.540;2023-05-18T05:01:14;12.08;84.78
67586;SHT31;55785;47.946;20.540;2023-05-18T05:03:40;12.06;84.05
67586;SHT31;55785;47.946;20.540;2023-05-18T05:06:06;12.04;84.18
67586;SHT31;55785;47.946;20.540;2023-05-18T05:08:31;12.06;84.95
67586;SHT31;55785;47.946;20.540;2023-05-18T05:10:57;12.01;84.19
67586;SHT31;55785;47.946;20.540;2023-05-18T05:13:22;12.06;84.58
67586;SHT31;55785;47.946;20.540;2023-05-18T05:15:47;12.04;85.36
67586;SHT31;55785;47.946;20.540;2023-05-18T05:18:13;12.00;85.16
67586;SHT31;55785;47.946;20.540;2023-05-18T05:20:38;12.01;84.80
67586;SHT31;55785;47.946;20.540;2023-05-18T05:23:03;11.97;84.30
67586;SHT31;55785;47.946;20.540;2023-05-18T05:25:29;12.00;85.14
67586;SHT31;55785;47.946;20.540;2023-05-18T05:27:54;12.01;85.34
67586;SHT31;55785;47.946;20.540;2023-05-18T05:30:19;12.01;85.00
67586;SHT31;55785;47.946;20.540;2023-05-18T05:32:45;11.98;85.55
67586;SHT31;55785;47.946;20.540;2023-05-18T05:35:10;12.00;85.79
67586;SHT31;55785;47.946;20.540;2023-05-18T05:37:36;12.04;85.81
67586;SHT31;55785;47.946;20.540;2023-05-18T05:40:01;12.01;85.55
67586;SHT31;55785;47.946;20.540;2023-05-18T05:42:26;12.07;86.03
67586;SHT31;55785;47.946;20.540;2023-05-18T05:44:52;12.07;85.71
67586;SHT31;55785;47.946;20.540;2023-05-18T05:47:17;12.06;85.30
67586;SHT31;55785;47.946;20.540;2023-05-18T05:49:42;12.12;85.35
67586;SHT31;55785;47.946;20.540;2023-05-18T05:52:08;12.17;85.51
67586;SHT31;55785;47.946;20.540;2023-05-18T05:54:33;12.23;85.07
67586;SHT31;55785;47.946;20.540;2023-05-18T05:56:58;12.28;85.24
67586;SHT31;55785;47.946;20.540;2023-05-18T05:59:24;12.31;85.05
67586;SHT31;55785;47.946;20.540;2023-05-18T06:01:49;12.23;84.39
67586;SHT31;55785;47.946;20.540;2023-05-18T06:04:15;12.18;84.15
67586;SHT31;55785;47.946;20.540;2023-05-18T06:06:40;12.24;84.91
67586;SHT31;55785;47.946;20.540;2023-05-18T06:09:06;12.21;85.10
67586;SHT31;55785;47.946;20.540;2023-05-18T06:11:31;12.24;85.77
67586;SHT31;55785;47.946;20.540;2023-05-18T06:13:58;12.21;85.27
67586;SHT31;55785;47.946;20.540;2023-05-18T06:16:24;12.17;85.39
67586;SHT31;55785;47.946;20.540;2023-05-18T06:18:49;12.17;85.78
67586;SHT31;55785;47.946;20.540;2023-05-18T06:21:14;12.23;85.91
67586;SHT31;55785;47.946;20.540;2023-05-18T06:23:40;12.17;85.80
67586;SHT31;55785;47.946;20.540;2023-05-18T06:26:05;12.21;85.28
67586;SHT31;55785;47.946;20.540;2023-05-18T06:28:31;12.20;85.60
67586;SHT31;55785;47.946;20.540;2023-05-18T06:30:57;12.20;85.52
67586;SHT31;55785;47.946;20.540;2023-05-18T06:33:22;12.23;85.27
67586;SHT31;55785;47.946;20.540;2023-05-18T06:35:48;12.24;85.39
67586;SHT31;55785;47.946;20.540;2023-05-18T06:38:13;12.25;85.03
67586;SHT31;55785;47.946;20.540;2023-05-18T06:40:38;12.31;85.37
67586;SHT31;55785;47.946;20.540;2023-05-18T06:43:04;12.25;84.77
67586;SHT31;55785;47.946;20.540;2023-05-18T06:45:29;12.31;84.64
67586;SHT31;55785;47.946;20.540;2023-05-18T06:47:55;12.34;84.71
67586;SHT31;55785;47.946;20.540;2023-05-18T06:50:20;12.34;85.35
67586;SHT31;55785;47.946;20.540;2023-05-18T06:52:45;12.38;86.01
67586;SHT31;55785;47.946;20.540;2023-05-18T06:55:11;12.31;84.65
67586;SHT31;55785;47.946;20.540;2023-05-18T06:57:36;12.35;84.88
67586;SHT31;55785;47.946;20.540;2023-05-18T07:00:02;12.38;85.00
67586;SHT31;55785;47.946;20.540;2023-05-18T07:02:27;12.41;85.28
67586;SHT31;55785;47.946;20.540;2023-05-18T07:04:52;12.38;85.15
67586;SHT31;55785;47.946;20.540;2023-05-18T07:07:18;12.34;84.75
67586;SHT31;55785;47.946;20.540;2023-05-18T07:09:43;12.38;84.63
67586;SHT31;55785;47.946;20.540;2023-05-18T07:12:09;12.45;85.59
67586;SHT31;55785;47.946;20.540;2023-05-18T07:14:34;12.46;85.65
67586;SHT31;55785;47.946;20.540;2023-05-18T07:16:59;12.45;85.52
67586;SHT31;55785;47.946;20.540;2023-05-18T07:19:25;12.46;85.18
67586;SHT31;55785;47.946;20.540;2023-05-18T07:21:50;12.46;84.91
67586;SHT31;55785;47.946;20.540;2023-05-18T07:24:15;12.48;85.19
67586;SHT31;55785;47.946;20.540;2023-05-18T07:26:41;12.45;85.75
67586;SHT31;55785;47.946;20.540;2023-05-18T07:29:06;12.41;85.76
67586;SHT31;55785;47.946;20.540;2023-05-18T07:31:31;12.44;86.06
67586;SHT31;55785;47.946;20.540;2023-05-18T07:33:57;12.51;86.15
67586;SHT31;55785;47.946;20.540;2023-05-18T07:36:22;12.23;85.53
67586;SHT31;55785;47.946;20.540;2023-05-18T07:38:47;12.23;86.24
67586;SHT31;55785;47.946;20.540;2023-05-18T07:43:38;12.37;85.95
67586;SHT31;55785;47.946;20.540;2023-05-18T07:46:03;12.49;86.46
67586;SHT31;55785;47.946;20.540;2023-05-18T07:48:28;12.58;85.62
67586;SHT31;55785;47.946;20.540;2023-05-18T07:50:54;12.66;85.87
67586;SHT31;55785;47.946;20.540;2023-05-18T07:53:19;12.72;85.55
67586;SHT31;55785;47.946;20.540;2023-05-18T07:55:44;12.78;86.01
67586;SHT31;55785;47.946;20.540;2023-05-18T08:03:00;13.07;85.35
67586;SHT31;55785;47.946;20.540;2023-05-18T08:05:25;13.19;85.49
67586;SHT31;55785;47.946;20.540;2023-05-18T08:07:51;13.22;85.53
67586;SHT31;55785;47.946;20.540;2023-05-18T08:10:16;13.27;85.41
67586;SHT31;55785;47.946;20.540;2023-05-18T08:12:42;13.16;83.97
67586;SHT31;55785;47.946;20.540;2023-05-18T08:15:08;13.19;85.02
67586;SHT31;55785;47.946;20.540;2023-05-18T08:17:34;13.04;84.25
67586;SHT31;55785;47.946;20.540;2023-05-18T08:19:59;12.96;83.98
67586;SHT31;55785;47.946;20.540;2023-05-18T08:27:15;12.85;84.75
67586;SHT31;55785;47.946;20.540;2023-05-18T08:29:40;12.83;85.29
67586;SHT31;55785;47.946;20.540;2023-05-18T08:32:06;12.81;84.93
67586;SHT31;55785;47.946;20.540;2023-05-18T08:34:31;12.81;85.50
67586;SHT31;55785;47.946;20.540;2023-05-18T09:11:13;13.14;84.24
67586;SHT31;55785;47.946;20.540;2023-05-18T09:13:39;13.04;83.96
67586;SHT31;55785;47.946;20.540;2023-05-18T09:16:05;12.91;84.72
67586;SHT31;55785;47.946;20.540;2023-05-18T09:18:30;12.73;84.62
67586;SHT31;55785;47.946;20.540;2023-05-18T09:20:56;12.69;85.81
67586;SHT31;55785;47.946;20.540;2023-05-18T09:23:22;12.69;86.04
67586;SHT31;55785;47.946;20.540;2023-05-18T09:25:47;12.64;85.91
67586;SHT31;55785;47.946;20.540;2023-05-18T09:40:33;12.44;86.65
67586;SHT31;55785;47.946;20.540;2023-05-18T09:47:56;12.49;87.87
67586;SHT31;55785;47.946;20.540;2023-05-18T09:50:22;12.55;87.87
67586;SHT31;55785;47.946;20.540;2023-05-18T09:52:48;12.68;87.78
67586;SHT31;55785;47.946;20.540;2023-05-18T09:55:15;12.73;87.40
67586;SHT31;55785;47.946;20.540;2023-05-18T09:57:42;12.73;87.48
67586;SHT31;55785;47.946;20.540;2023-05-18T10:02:37;12.49;88.28
67586;SHT31;55785;47.946;20.540;2023-05-18T10:05:03;12.45;88.56
67586;SHT31;55785;47.946;20.540;2023-05-18T10:07:28;12.40;88.53
67586;SHT31;55785;47.946;20.540;2023-05-18T10:10:00;12.56;89.03
67586;SHT31;55785;47.946;20.540;2023-05-18T10:44:01;13.44;85.68
67586;SHT31;55785;47.946;20.540;2023-05-18T10:48:52;13.28;85.74
67586;SHT31;55785;47.946;20.540;2023-05-18T10:51:20;13.14;86.01
67586;SHT31;55785;47.946;20.540;2023-05-18T10:56:10;13.14;86.15
67586;SHT31;55785;47.946;20.540;2023-05-18T11:06:04;13.37;85.47
67586;SHT31;55785;47.946;20.540;2023-05-18T11:08:30;13.46;85.96
67586;SHT31;55785;47.946;20.540;2023-05-18T11:11:03;13.51;84.69
67586;SHT31;55785;47.946;20.540;2023-05-18T11:24:25;13.78;84.00
67586;SHT31;55785;47.946;20.540;2023-05-18T11:26:56;13.82;83.56
67586;SHT31;55785;47.946;20.540;2023-05-18T11:29:35;13.94;83.80
67586;SHT31;55785;47.946;20.540;2023-05-18T11:32:00;13.97;82.99
67586;SHT31;55785;47.946;20.540;2023-05-18T11:37:01;14.13;83.36
67586;SHT31;55785;47.946;20.540;2023-05-18T11:39:26;14.26;83.19
67586;SHT31;55785;47.946;20.540;2023-05-18T11:42:00;14.39;83.02
67586;SHT31;55785;47.946;20.540;2023-05-18T11:44:28;14.51;82.67
67586;SHT31;55785;47.946;20.540;2023-05-18T11:49:24;14.66;82.23
67586;SHT31;55785;47.946;20.540;2023-05-18T11:52:28;14.81;82.22
67586;SHT31;55785;47.946;20.540;2023-05-18T16:07:47;15.36;78.91
67586;SHT31;55785;47.946;20.540;2023-05-18T16:10:12;15.35;78.74
67586;SHT31;55785;47.946;20.540;2023-05-18T16:12:38;15.31;79.59
67586;SHT31;55785;47.946;20.540;2023-05-18T16:15:03;15.32;79.72
67586;SHT31;55785;47.946;20.540;2023-05-18T16:17:29;15.28;78.84
67586;SHT31;55785;47.946;20.540;2023-05-18T16:19:54;15.31;79.06
67586;SHT31;55785;47.946;20.540;2023-05-18T16:22:19;15.31;79.32
67586;SHT31;55785;47.946;20.540;2023-05-18T16:24:45;15.26;80.31
67586;SHT31;55785;47.946;20.540;2023-05-18T16:27:10;15.22;79.67
67586;SHT31;55785;47.946;20.540;2023-05-18T16:29:35;15.28;80.56
67586;SHT31;55785;47.946;20.540;2023-05-18T16:32:01;15.28;80.42
67586;SHT31;55785;47.946;20.540;2023-05-18T16:36:51;15.18;79.79
67586;SHT31;55785;47.946;20.540;2023-05-18T16:39:17;15.24;80.15
67586;SHT31;55785;47.946;20.540;2023-05-18T16:41:42;15.32;80.23
67586;SHT31;55785;47.946;20.540;2023-05-18T16:53:48;15.05;77.93
67586;SHT31;55785;47.946;20.540;2023-05-18T16:56:14;15.02;78.57
67586;SHT31;55785;47.946;20.540;2023-05-18T21:17:45;11.56;84.04
67586;SHT31;55785;47.946;20.540;2023-05-18T21:25:01;11.42;84.04
67586;SHT31;55785;47.946;20.540;2023-05-18T21:27:26;11.46;84.28
67586;SHT31;55785;47.946;20.540;2023-05-18T21:29:51;11.32;83.91
67586;SHT31;55785;47.946;20.540;2023-05-18T21:32:17;11.17;83.94
67586;SHT31;55785;47.946;20.540;2023-05-18T21:34:42;11.04;84.36
67586;SHT31;55785;47.946;20.540;2023-05-18T21:37:08;10.98;84.64
67586;SHT31;55785;47.946;20.540;2023-05-18T21:39:33;10.93;84.81
67586;SHT31;55785;47.946;20.540;2023-05-18T21:41:58;10.87;84.97
67586;SHT31;55785;47.946;20.540;2023-05-18T21:44:24;10.81;85.11
67586;SHT31;55785;47.946;20.540;2023-05-18T21:46:49;10.81;85.15
67586;SHT31;55785;47.946;20.540;2023-05-18T21:49:14;10.73;85.35
67586;SHT31;55785;47.946;20.540;2023-05-18T21:51:40;10.77;84.84
67586;SHT31;55785;47.946;20.540;2023-05-18T21:54:05;10.93;84.98
67586;SHT31;55785;47.946;20.540;2023-05-18T21:56:30;10.97;84.81
67586;SHT31;55785;47.946;20.540;2023-05-18T21:58:56;10.98;84.71
67586;SHT31;55785;47.946;20.540;2023-05-18T22:01:21;10.93;84.71
67586;SHT31;55785;47.946;20.540;2023-05-18T22:03:47;10.93;84.64
67586;SHT31;55785;47.946;20.540;2023-05-18T22:06:12;10.91;84.71
67586;SHT31;55785;47.946;20.540;2023-05-18T22:08:38;10.71;84.53
67586;SHT31;55785;47.946;20.540;2023-05-18T22:11:03;10.60;84.80
67586;SHT31;55785;47.946;20.540;2023-05-18T22:13:29;10.49;85.19
67586;SHT31;55785;47.946;20.540;2023-05-18T22:15:54;10.39;85.28
67586;SHT31;55785;47.946;20.540;2023-05-18T22:18:20;10.31;85.71
67586;SHT31;55785;47.946;20.540;2023-05-18T22:20:45;10.29;86.00
67586;SHT31;55785;47.946;20.540;2023-05-18T22:23:10;10.25;86.15
67586;SHT31;55785;47.946;20.540;2023-05-18T22:25:36;10.18;86.11
67586;SHT31;55785;47.946;20.540;2023-05-18T22:28:01;10.09;85.94
67586;SHT31;55785;47.946;20.540;2023-05-18T22:30:26;10.12;86.12
67586;SHT31;55785;47.946;20.540;2023-05-18T22:32:52;10.12;86.42
67586;SHT31;55785;47.946;20.540;2023-05-18T22:35:17;10.06;86.12
67586;SHT31;55785;47.946;20.540;2023-05-18T22:37:43;10.02;86.15
67586;SHT31;55785;47.946;20.540;2023-05-18T22:40:08;9.97;86.07
67586;SHT31;55785;47.946;20.540;2023-05-18T22:42:34;9.84;86.12
67586;SHT31;55785;47.946;20.540;2023-05-18T22:45:00;9.78;86.10
67586;SHT31;55785;47.946;20.540;2023-05-18T22:47:25;9.84;86.28
67586;SHT31;55785;47.946;20.540;2023-05-18T22:49:50;9.80;86.05
67586;SHT31;55785;47.946;20.540;2023-05-18T22:52:16;9.65;85.74
67586;SHT31;55785;47.946;20.540;2023-05-18T22:54:41;9.53;85.67
67586;SHT31;55785;47.946;20.540;2023-05-18T22:57:08;9.51;86.23
67586;SHT31;55785;47.946;20.540;2023-05-18T22:59:33;9.46;86.49
67586;SHT31;55785;47.946;20.540;2023-05-18T23:01:59;9.53;86.75
67586;SHT31;55785;47.946;20.540;2023-05-18T23:04:24;9.53;86.91
67586;SHT31;55785;47.946;20.540;2023-05-18T23:06:49;9.46;86.81
67586;SHT31;55785;47.946;20.540;2023-05-18T23:09:15;9.47;86.78
67586;SHT31;55785;47.946;20.540;2023-05-18T23:11:41;9.33;87.15
67586;SHT31;55785;47.946;20.540;2023-05-18T23:14:06;9.37;86.88
67586;SHT31;55785;47.946;20.540;2023-05-18T23:16:31;9.32;86.94
67586;SHT31;55785;47.946;20.540;2023-05-18T23:18:57;9.32;87.10
67586;SHT31;55785;47.946;20.540;2023-05-18T23:21:22;9.33;87.39
67586;SHT31;55785;47.946;20.540;2023-05-18T23:23:47;9.33;87.53
67586;SHT31;55785;47.946;20.540;2023-05-18T23:26:13;9.39;87.68
67586;SHT31;55785;47.946;20.540;2023-05-18T23:28:38;9.36;87.57
67586;SHT31;55785;47.946;20.540;2023-05-18T23:31:03;9.29;87.35
67586;SHT31;55785;47.946;20.540;2023-05-18T23:33:29;9.20;87.32
67586;SHT31;55785;47.946;20.540;2023-05-18T23:35:58;9.16;87.57
67586;SHT31;55785;47.946;20.540;2023-05-18T23:38:25;9.18;87.68
67586;SHT31;55785;47.946;20.540;2023-05-18T23:40:53;9.05;87.36
67586;SHT31;55785;47.946;20.540;2023-05-18T23:43:18;8.99;87.45
67586;SHT31;55785;47.946;20.540;2023-05-18T23:45:44;8.96;88.03
67586;SHT31;55785;47.946;20.540;2023-05-18T23:48:09;8.98;87.88
67586;SHT31;55785;47.946;20.540;2023-05-18T23:50:35;8.98;87.97
67586;SHT31;55785;47.946;20.540;2023-05-18T23:53:02;8.95;87.78
67586;SHT31;55785;47.946;20.540;2023-05-18T23:55:28;8.91;87.73
67586;SHT31;55785;47.946;20.540;2023-05-18T23:57:54;8.92;88.20
